| time (UTC) | temp F | wind direction | speed MPH | gust MPH | rain 1hr in | rain 24hr in | rain mn in | humidity % | barometer mb |
| 20260505011337 | 58 | 0.0 | 2.0 | 0.00 | 0.00 | 0.00 | 44 | 1008.1 | |
| 20260505010357 | 58 | 338 | 1.0 | 5.0 | 0.00 | 0.00 | 0.00 | 44 | 1008.1 |
| 20260505005316 | 59 | 0.0 | 0.0 | 0.00 | 0.00 | 0.00 | 42 | 1008.0 | |
| 20260505004317 | 60 | 0.0 | 0.0 | 0.00 | 0.00 | 0.00 | 38 | 1007.4 | |
| 20260505003336 | 60 | 0.0 | 1.0 | 0.00 | 0.00 | 0.00 | 37 | 1007.4 | |
| 20260505002317 | 60 | 315 | 7.0 | 18.0 | 0.00 | 0.00 | 0.00 | 36 | 1007.4 |
| 20260505001337 | 61 | 315 | 1.0 | 4.0 | 0.00 | 0.00 | 0.00 | 34 | 1007.4 |
| 20260505000316 | 62 | 0.0 | 1.0 | 0.00 | 0.00 | 0.00 | 34 | 1007.4 | |
| 20260504235316 | 62 | 338 | 2.0 | 9.0 | 0.00 | 0.00 | 0.00 | 33 | 1007.2 |
| 20260504234336 | 63 | 0 | 1.0 | 9.0 | 0.00 | 0.00 | 0.00 | 32 | 1007.1 |
| 20260504233316 | 64 | 0.0 | 0.0 | 0.00 | 0.00 | 0.00 | 27 | 1007.1 | |
| 20260504232317 | 64 | 315 | 1.0 | 6.0 | 0.00 | 0.00 | 0.00 | 26 | 1007.0 |
| 20260504231336 | 65 | 0.0 | 1.0 | 0.00 | 0.00 | 0.00 | 26 | 1006.8 | |
| 20260504230316 | 66 | 338 | 2.0 | 9.0 | 0.00 | 0.00 | 0.00 | 26 | 1007.0 |
| 20260504225316 | 66 | 0.0 | 0.0 | 0.00 | 0.00 | 0.00 | 25 | 1006.9 | |
| 20260504224336 | 67 | 0.0 | 2.0 | 0.00 | 0.00 | 0.00 | 24 | 1007.0 | |
| 20260504223336 | 68 | 0.0 | 1.0 | 0.00 | 0.00 | 0.00 | 23 | 1007.5 | |
| 20260504222316 | 69 | 0.0 | 0.0 | 0.00 | 0.00 | 0.00 | 23 | 1007.9 | |
| 20260504221356 | 70 | 0.0 | 0.0 | 0.00 | 0.00 | 0.00 | 22 | 1007.4 | |
| 20260504220317 | 70 | 0.0 | 0.0 | 0.00 | 0.00 | 0.00 | 22 | 1007.8 | |
| 20260504215316 | 70 | 0.0 | 0.0 | 0.00 | 0.00 | 0.00 | 21 | 1008.3 | |
| 20260504214317 | 70 | 0.0 | 0.0 | 0.00 | 0.00 | 0.00 | 24 | 1008.0 | |
| 20260504213316 | 69 | 0.0 | 1.0 | 0.00 | 0.00 | 0.00 | 23 | 1007.7 | |
| 20260504212316 | 68 | 0.0 | 0.0 | 0.00 | 0.00 | 0.00 | 24 | 1008.6 | |
| 20260504211316 | 68 | 0.0 | 0.0 | 0.00 | 0.00 | 0.00 | 24 | 1008.8 | |
| 20260504210316 | 68 | 0.0 | 0.0 | 0.00 | 0.00 | 0.00 | 22 | 1008.6 | |
| 20260504205316 | 70 | 0.0 | 5.0 | 0.00 | 0.00 | 0.00 | 22 | 1009.0 | |
| 20260504204337 | 73 | 0.0 | 0.0 | 0.00 | 0.00 | 0.00 | 18 | 1009.7 | |
| 20260504203316 | 73 | 0.0 | 0.0 | 0.00 | 0.00 | 0.00 | 23 | 1009.9 | |
| 20260504202316 | 72 | 0.0 | 0.0 | 0.00 | 0.00 | 0.00 | 22 | 1009.6 | |
| 20260504201316 | 70 | 0.0 | 0.0 | 0.00 | 0.00 | 0.00 | 22 | 1009.7 | |
| 20260504200316 | 68 | 0.0 | 0.0 | 0.00 | 0.00 | 0.00 | 24 | 1009.3 | |
| 20260504195316 | 67 | 0.0 | 0.0 | 0.00 | 0.00 | 0.00 | 24 | 1009.3 | |
| 20260504194316 | 67 | 293 | 2.0 | 8.0 | 0.00 | 0.00 | 0.00 | 23 | 1009.1 |
| 20260504193316 | 67 | 0.0 | 0.0 | 0.00 | 0.00 | 0.00 | 22 | 1009.0 | |
| 20260504192316 | 68 | 0.0 | 2.0 | 0.00 | 0.00 | 0.00 | 23 | 1009.0 | |
| 20260504191316 | 67 | 0.0 | 0.0 | 0.00 | 0.00 | 0.00 | 21 | 1009.0 | |
| 20260504190316 | 67 | 203 | 1.0 | 7.0 | 0.00 | 0.00 | 0.00 | 22 | 1009.0 |
| 20260504185316 | 67 | 203 | 3.0 | 16.0 | 0.00 | 0.00 | 0.00 | 20 | 1009.0 |
| 20260504184316 | 69 | 0.0 | 1.0 | 0.00 | 0.00 | 0.00 | 20 | 1009.2 | |
| 20260504183336 | 70 | 0.0 | 1.0 | 0.00 | 0.00 | 0.00 | 19 | 1009.3 | |
| 20260504182316 | 70 | 0.0 | 1.0 | 0.00 | 0.00 | 0.00 | 18 | 1009.3 | |
| 20260504181316 | 71 | 0.0 | 0.0 | 0.00 | 0.00 | 0.00 | 17 | 1009.7 | |
| 20260504180316 | 72 | 0.0 | 2.0 | 0.00 | 0.00 | 0.00 | 17 | 1009.9 | |
| 20260504175316 | 73 | 0.0 | 0.0 | 0.00 | 0.00 | 0.00 | 18 | 1010.4 | |
| 20260504174316 | 72 | 0.0 | 4.0 | 0.00 | 0.00 | 0.00 | 17 | 1010.6 | |
| 20260504173316 | 72 | 0.0 | 1.0 | 0.00 | 0.00 | 0.00 | 17 | 1010.7 | |
| 20260504172316 | 71 | 0.0 | 2.0 | 0.00 | 0.00 | 0.00 | 19 | 1010.6 | |
| 20260504171437 | 71 | 0.0 | 1.0 | 0.00 | 0.00 | 0.00 | 18 | 1010.6 | |
| 20260504170316 | 71 | 0.0 | 0.0 | 0.00 | 0.00 | 0.00 | 17 | 1010.6 | |
| 20260504160336 | 70 | 248 | 3.0 | 7.0 | 0.00 | 0.00 | 0.00 | 20 | 1011.2 |
| 20260504150315 | 68 | 248 | 3.0 | 8.0 | 0.00 | 0.00 | 0.00 | 23 | 1011.9 |
| 20260504141316 | 63 | 0.0 | 1.0 | 0.00 | 0.00 | 0.00 | 30 | 1011.3 | |
| 20260504140315 | 61 | 0.0 | 0.0 | 0.00 | 0.00 | 0.00 | 32 | 1011.1 | |
| 20260504130318 | 52 | 0.0 | 0.0 | 0.00 | 0.00 | 0.00 | 41 | 1010.4 | |
| 20260504110358 | 48 | 0.0 | 0.0 | 0.00 | 0.00 | 0.00 | 45 | 1010.7 | |
| 20260504100318 | 49 | 0.0 | 0.0 | 0.00 | 0.00 | 0.00 | 45 | 1011.4 | |
| 20260504081317 | 54 | 0.0 | 0.0 | 0.00 | 0.00 | 0.00 | 36 | 1013.4 | |
| 20260504080357 | 54 | 0.0 | 0.0 | 0.00 | 0.00 | 0.00 | 37 | 1013.5 | |
| 20260504070317 | 51 | 0.0 | 0.0 | 0.00 | 0.00 | 0.00 | 44 | 1013.3 | |
| 20260504050318 | 51 | 0.0 | 1.0 | 0.00 | 0.00 | 0.00 | 48 | 1014.0 | |
| 20260504045317 | 52 | 0.0 | 0.0 | 0.00 | 0.00 | 0.00 | 46 | 1014.0 | |
| 20260504044317 | 53 | 0.0 | 0.0 | 0.00 | 0.00 | 0.00 | 44 | 1014.1 | |
| 20260504043337 | 54 | 0.0 | 0.0 | 0.00 | 0.00 | 0.00 | 42 | 1014.2 | |
| 20260504042317 | 55 | 0.0 | 0.0 | 0.00 | 0.00 | 0.00 | 39 | 1014.3 | |
| 20260504041337 | 55 | 0.0 | 0.0 | 0.00 | 0.00 | 0.00 | 38 | 1014.3 | |
| 20260504040317 | 56 | 0.0 | 0.0 | 0.00 | 0.00 | 0.00 | 38 | 1014.4 | |
| 20260504035317 | 56 | 0.0 | 1.0 | 0.00 | 0.00 | 0.00 | 37 | 1014.9 | |
| 20260504034317 | 56 | 0.0 | 0.0 | 0.00 | 0.00 | 0.00 | 37 | 1014.6 | |
| 20260504033317 | 56 | 0.0 | 0.0 | 0.00 | 0.00 | 0.00 | 38 | 1014.6 | |
| 20260504032317 | 57 | 0.0 | 0.0 | 0.00 | 0.00 | 0.00 | 36 | 1014.6 | |
| 20260504031317 | 57 | 0.0 | 0.0 | 0.00 | 0.00 | 0.00 | 36 | 1014.5 | |
| 20260504030317 | 58 | 0.0 | 0.0 | 0.00 | 0.00 | 0.00 | 34 | 1014.6 | |
| 20260504025317 | 58 | 0.0 | 0.0 | 0.00 | 0.00 | 0.00 | 35 | 1014.6 | |
| 20260504024317 | 59 | 0.0 | 0.0 | 0.00 | 0.00 | 0.00 | 33 | 1014.4 | |
| 20260504023337 | 59 | 0.0 | 1.0 | 0.00 | 0.00 | 0.00 | 32 | 1014.4 | |
| 20260504022337 | 59 | 0.0 | 0.0 | 0.00 | 0.00 | 0.00 | 32 | 1014.4 | |
| 20260504021317 | 59 | 0.0 | 1.0 | 0.00 | 0.00 | 0.00 | 32 | 1014.1 | |
| 20260504020317 | 59 | 0.0 | 0.0 | 0.00 | 0.00 | 0.00 | 32 | 1013.9 | |
| 20260504015317 | 60 | 0.0 | 0.0 | 0.00 | 0.00 | 0.00 | 32 | 1013.9 | |
| 20260504014317 | 61 | 0.0 | 0.0 | 0.00 | 0.00 | 0.00 | 29 | 1013.7 | |
| 20260504013317 | 62 | 0.0 | 0.0 | 0.00 | 0.00 | 0.00 | 27 | 1013.3 | |
| 20260504012337 | 64 | 0.0 | 0.0 | 0.00 | 0.00 | 0.00 | 26 | 1013.3 |